sensor_id;sensor_type;location;lat;lon;timestamp;temperature;humidity
69382;DHT22;56560;50.692;12.844;2023-04-03T00:01:27;2.70;76.30
69382;DHT22;56560;50.692;12.844;2023-04-03T00:03:53;2.70;76.60
69382;DHT22;56560;50.692;12.844;2023-04-03T00:06:20;2.70;76.20
69382;DHT22;56560;50.692;12.844;2023-04-03T00:08:46;2.70;76.50
69382;DHT22;56560;50.692;12.844;2023-04-03T00:11:12;2.60;76.40
69382;DHT22;56560;50.692;12.844;2023-04-03T00:13:38;2.60;75.20
69382;DHT22;56560;50.692;12.844;2023-04-03T00:16:05;2.60;76.40
69382;DHT22;56560;50.692;12.844;2023-04-03T00:18:31;2.50;76.90
69382;DHT22;56560;50.692;12.844;2023-04-03T00:20:57;2.50;76.00
69382;DHT22;56560;50.692;12.844;2023-04-03T00:23:22;2.50;75.60
69382;DHT22;56560;50.692;12.844;2023-04-03T00:25:50;2.40;76.80
69382;DHT22;56560;50.692;12.844;2023-04-03T00:28:16;2.40;76.20
69382;DHT22;56560;50.692;12.844;2023-04-03T00:30:41;2.20;76.90
69382;DHT22;56560;50.692;12.844;2023-04-03T00:33:07;2.20;75.90
69382;DHT22;56560;50.692;12.844;2023-04-03T00:35:34;2.20;77.20
69382;DHT22;56560;50.692;12.844;2023-04-03T00:38:00;2.20;76.00
69382;DHT22;56560;50.692;12.844;2023-04-03T00:40:27;2.20;77.10
69382;DHT22;56560;50.692;12.844;2023-04-03T00:42:57;2.30;76.40
69382;DHT22;56560;50.692;12.844;2023-04-03T00:45:34;2.30;77.10
69382;DHT22;56560;50.692;12.844;2023-04-03T00:48:01;2.30;76.10
69382;DHT22;56560;50.692;12.844;2023-04-03T00:50:29;2.30;75.90
69382;DHT22;56560;50.692;12.844;2023-04-03T00:52:56;2.10;75.30
69382;DHT22;56560;50.692;12.844;2023-04-03T00:55:22;2.10;75.50
69382;DHT22;56560;50.692;12.844;2023-04-03T00:57:49;2.00;76.20
69382;DHT22;56560;50.692;12.844;2023-04-03T01:00:17;1.90;75.70
69382;DHT22;56560;50.692;12.844;2023-04-03T01:02:44;1.90;75.50
69382;DHT22;56560;50.692;12.844;2023-04-03T01:05:10;1.90;76.00
69382;DHT22;56560;50.692;12.844;2023-04-03T01:07:36;1.90;76.00
69382;DHT22;56560;50.692;12.844;2023-04-03T01:10:07;1.90;75.00
69382;DHT22;56560;50.692;12.844;2023-04-03T01:12:38;1.90;75.20
69382;DHT22;56560;50.692;12.844;2023-04-03T01:15:20;1.90;75.90
69382;DHT22;56560;50.692;12.844;2023-04-03T01:17:49;1.90;75.30
69382;DHT22;56560;50.692;12.844;2023-04-03T01:25:34;1.80;75.80
69382;DHT22;56560;50.692;12.844;2023-04-03T01:28:02;1.80;73.90
69382;DHT22;56560;50.692;12.844;2023-04-03T01:30:32;1.70;75.00
69382;DHT22;56560;50.692;12.844;2023-04-03T01:32:58;1.70;75.40
69382;DHT22;56560;50.692;12.844;2023-04-03T01:35:24;1.60;74.80
69382;DHT22;56560;50.692;12.844;2023-04-03T01:37:50;1.50;75.80
69382;DHT22;56560;50.692;12.844;2023-04-03T01:40:15;1.50;75.50
69382;DHT22;56560;50.692;12.844;2023-04-03T01:42:41;1.50;75.00
69382;DHT22;56560;50.692;12.844;2023-04-03T01:45:07;1.40;74.40
69382;DHT22;56560;50.692;12.844;2023-04-03T01:47:35;1.30;75.50
69382;DHT22;56560;50.692;12.844;2023-04-03T01:50:01;1.20;74.80
69382;DHT22;56560;50.692;12.844;2023-04-03T01:52:26;1.20;77.30
69382;DHT22;56560;50.692;12.844;2023-04-03T01:54:52;1.30;76.80
69382;DHT22;56560;50.692;12.844;2023-04-03T01:57:18;1.30;76.10
69382;DHT22;56560;50.692;12.844;2023-04-03T01:59:43;1.20;76.50
69382;DHT22;56560;50.692;12.844;2023-04-03T02:02:09;1.20;76.90
69382;DHT22;56560;50.692;12.844;2023-04-03T02:04:35;1.10;76.20
69382;DHT22;56560;50.692;12.844;2023-04-03T02:07:00;1.10;77.00
69382;DHT22;56560;50.692;12.844;2023-04-03T02:09:26;1.10;77.80
69382;DHT22;56560;50.692;12.844;2023-04-03T02:11:52;1.10;76.00
69382;DHT22;56560;50.692;12.844;2023-04-03T02:14:18;1.00;77.80
69382;DHT22;56560;50.692;12.844;2023-04-03T02:16:44;1.00;78.20
69382;DHT22;56560;50.692;12.844;2023-04-03T02:19:09;0.90;77.70
69382;DHT22;56560;50.692;12.844;2023-04-03T02:21:35;0.90;77.10
69382;DHT22;56560;50.692;12.844;2023-04-03T02:24:00;0.90;76.00
69382;DHT22;56560;50.692;12.844;2023-04-03T02:26:26;0.90;77.50
69382;DHT22;56560;50.692;12.844;2023-04-03T02:28:52;0.90;78.80
69382;DHT22;56560;50.692;12.844;2023-04-03T02:31:18;0.90;77.80
69382;DHT22;56560;50.692;12.844;2023-04-03T02:33:43;0.90;77.60
69382;DHT22;56560;50.692;12.844;2023-04-03T02:36:09;0.90;77.90
69382;DHT22;56560;50.692;12.844;2023-04-03T02:38:35;0.90;76.90
69382;DHT22;56560;50.692;12.844;2023-04-03T02:41:02;0.90;77.60
69382;DHT22;56560;50.692;12.844;2023-04-03T02:43:28;0.80;78.10
69382;DHT22;56560;50.692;12.844;2023-04-03T02:45:53;0.70;77.00
69382;DHT22;56560;50.692;12.844;2023-04-03T02:48:19;0.70;78.60
69382;DHT22;56560;50.692;12.844;2023-04-03T02:50:45;0.60;77.20
69382;DHT22;56560;50.692;12.844;2023-04-03T02:53:11;0.60;77.00
69382;DHT22;56560;50.692;12.844;2023-04-03T02:55:36;0.50;77.50
69382;DHT22;56560;50.692;12.844;2023-04-03T02:58:02;0.50;78.70
69382;DHT22;56560;50.692;12.844;2023-04-03T03:00:29;0.50;79.40
69382;DHT22;56560;50.692;12.844;2023-04-03T03:02:55;0.50;80.00
69382;DHT22;56560;50.692;12.844;2023-04-03T03:05:21;0.40;80.20
69382;DHT22;56560;50.692;12.844;2023-04-03T03:07:47;0.50;80.00
69382;DHT22;56560;50.692;12.844;2023-04-03T03:10:13;0.50;79.50
69382;DHT22;56560;50.692;12.844;2023-04-03T03:12:38;0.40;78.70
69382;DHT22;56560;50.692;12.844;2023-04-03T03:15:04;0.40;79.50
69382;DHT22;56560;50.692;12.844;2023-04-03T03:17:30;0.30;80.10
69382;DHT22;56560;50.692;12.844;2023-04-03T03:19:55;0.30;79.50
69382;DHT22;56560;50.692;12.844;2023-04-03T03:22:21;0.30;79.90
69382;DHT22;56560;50.692;12.844;2023-04-03T03:24:46;0.30;81.10
69382;DHT22;56560;50.692;12.844;2023-04-03T03:27:12;0.40;80.00
69382;DHT22;56560;50.692;12.844;2023-04-03T03:29:38;0.40;78.80
69382;DHT22;56560;50.692;12.844;2023-04-03T03:32:04;0.40;79.70
69382;DHT22;56560;50.692;12.844;2023-04-03T03:34:29;0.50;79.10
69382;DHT22;56560;50.692;12.844;2023-04-03T03:36:55;0.40;79.10
69382;DHT22;56560;50.692;12.844;2023-04-03T03:39:21;0.30;79.10
69382;DHT22;56560;50.692;12.844;2023-04-03T03:41:47;0.30;79.90
69382;DHT22;56560;50.692;12.844;2023-04-03T03:44:12;0.40;79.50
69382;DHT22;56560;50.692;12.844;2023-04-03T03:46:38;0.40;80.00
69382;DHT22;56560;50.692;12.844;2023-04-03T03:49:04;0.30;79.90
69382;DHT22;56560;50.692;12.844;2023-04-03T03:51:29;0.30;79.50
69382;DHT22;56560;50.692;12.844;2023-04-03T03:53:55;0.30;79.30
69382;DHT22;56560;50.692;12.844;2023-04-03T03:56:21;0.30;79.80
69382;DHT22;56560;50.692;12.844;2023-04-03T03:58:47;0.40;80.00
69382;DHT22;56560;50.692;12.844;2023-04-03T04:01:13;0.40;79.30
69382;DHT22;56560;50.692;12.844;2023-04-03T04:03:38;0.30;80.90
69382;DHT22;56560;50.692;12.844;2023-04-03T04:06:04;0.40;79.20
69382;DHT22;56560;50.692;12.844;2023-04-03T04:08:30;0.40;80.40
69382;DHT22;56560;50.692;12.844;2023-04-03T04:10:55;0.50;78.70
69382;DHT22;56560;50.692;12.844;2023-04-03T04:13:21;0.40;80.40
69382;DHT22;56560;50.692;12.844;2023-04-03T04:15:46;0.50;79.10
69382;DHT22;56560;50.692;12.844;2023-04-03T04:18:12;0.50;79.30
69382;DHT22;56560;50.692;12.844;2023-04-03T04:20:38;0.40;78.30
69382;DHT22;56560;50.692;12.844;2023-04-03T04:23:03;0.20;79.00
69382;DHT22;56560;50.692;12.844;2023-04-03T04:25:29;0.10;79.10
69382;DHT22;56560;50.692;12.844;2023-04-03T04:27:54;-0.10;80.10
69382;DHT22;56560;50.692;12.844;2023-04-03T04:30:20;-0.20;81.00
69382;DHT22;56560;50.692;12.844;2023-04-03T04:32:46;-0.30;79.90
69382;DHT22;56560;50.692;12.844;2023-04-03T04:35:12;-0.30;82.00
69382;DHT22;56560;50.692;12.844;2023-04-03T04:37:37;-0.30;81.40
69382;DHT22;56560;50.692;12.844;2023-04-03T04:40:03;-0.40;80.50
69382;DHT22;56560;50.692;12.844;2023-04-03T04:42:29;-0.40;81.40
69382;DHT22;56560;50.692;12.844;2023-04-03T04:44:55;-0.50;82.40
69382;DHT22;56560;50.692;12.844;2023-04-03T04:47:20;-0.50;81.90
69382;DHT22;56560;50.692;12.844;2023-04-03T04:49:46;-0.50;81.90
69382;DHT22;56560;50.692;12.844;2023-04-03T04:52:13;-0.50;83.10
69382;DHT22;56560;50.692;12.844;2023-04-03T04:54:38;-0.40;81.90
69382;DHT22;56560;50.692;12.844;2023-04-03T04:57:04;-0.40;81.10
69382;DHT22;56560;50.692;12.844;2023-04-03T04:59:29;-0.40;82.80
69382;DHT22;56560;50.692;12.844;2023-04-03T05:01:55;-0.50;82.90
69382;DHT22;56560;50.692;12.844;2023-04-03T05:04:21;-0.60;81.50
69382;DHT22;56560;50.692;12.844;2023-04-03T05:06:46;-0.80;82.00
69382;DHT22;56560;50.692;12.844;2023-04-03T05:09:12;-0.90;82.90
69382;DHT22;56560;50.692;12.844;2023-04-03T05:11:38;-0.80;82.70
69382;DHT22;56560;50.692;12.844;2023-04-03T05:14:03;-0.80;82.40
69382;DHT22;56560;50.692;12.844;2023-04-03T05:16:32;-0.70;82.60
69382;DHT22;56560;50.692;12.844;2023-04-03T05:18:57;-0.60;81.90
69382;DHT22;56560;50.692;12.844;2023-04-03T05:21:23;-0.50;81.10
69382;DHT22;56560;50.692;12.844;2023-04-03T05:23:51;-0.30;81.10
69382;DHT22;56560;50.692;12.844;2023-04-03T05:26:17;-0.20;80.10
69382;DHT22;56560;50.692;12.844;2023-04-03T05:28:42;0.00;79.70
69382;DHT22;56560;50.692;12.844;2023-04-03T05:31:08;0.10;79.30
69382;DHT22;56560;50.692;12.844;2023-04-03T05:33:34;0.20;79.00
69382;DHT22;56560;50.692;12.844;2023-04-03T05:36:06;0.20;76.70
69382;DHT22;56560;50.692;12.844;2023-04-03T05:38:32;0.20;77.80
69382;DHT22;56560;50.692;12.844;2023-04-03T05:40:58;0.40;77.10
69382;DHT22;56560;50.692;12.844;2023-04-03T05:43:24;0.40;77.00
69382;DHT22;56560;50.692;12.844;2023-04-03T05:45:51;0.20;75.40
69382;DHT22;56560;50.692;12.844;2023-04-03T05:48:17;0.20;75.90
69382;DHT22;56560;50.692;12.844;2023-04-03T05:50:42;0.10;73.50
69382;DHT22;56560;50.692;12.844;2023-04-03T05:53:21;0.00;74.50
69382;DHT22;56560;50.692;12.844;2023-04-03T05:55:48;0.00;75.40
69382;DHT22;56560;50.692;12.844;2023-04-03T05:58:13;0.00;75.30
69382;DHT22;56560;50.692;12.844;2023-04-03T06:00:39;0.00;75.40
69382;DHT22;56560;50.692;12.844;2023-04-03T06:03:05;0.10;75.30
69382;DHT22;56560;50.692;12.844;2023-04-03T06:05:31;0.00;75.40
69382;DHT22;56560;50.692;12.844;2023-04-03T06:07:57;0.10;75.00
69382;DHT22;56560;50.692;12.844;2023-04-03T06:10:23;0.10;74.80
69382;DHT22;56560;50.692;12.844;2023-04-03T06:12:49;0.10;75.20
69382;DHT22;56560;50.692;12.844;2023-04-03T06:15:15;0.10;74.60
69382;DHT22;56560;50.692;12.844;2023-04-03T06:17:42;0.20;74.30
69382;DHT22;56560;50.692;12.844;2023-04-03T06:20:08;0.30;73.70
69382;DHT22;56560;50.692;12.844;2023-04-03T06:22:35;0.20;72.90
69382;DHT22;56560;50.692;12.844;2023-04-03T06:25:01;0.20;73.50
69382;DHT22;56560;50.692;12.844;2023-04-03T06:27:26;0.30;73.20
69382;DHT22;56560;50.692;12.844;2023-04-03T06:29:52;0.30;74.50
69382;DHT22;56560;50.692;12.844;2023-04-03T06:32:18;0.30;73.80
69382;DHT22;56560;50.692;12.844;2023-04-03T06:34:43;0.30;71.70
69382;DHT22;56560;50.692;12.844;2023-04-03T06:37:17;0.20;71.70
69382;DHT22;56560;50.692;12.844;2023-04-03T06:39:43;0.20;72.70
69382;DHT22;56560;50.692;12.844;2023-04-03T06:42:10;0.30;73.50
69382;DHT22;56560;50.692;12.844;2023-04-03T06:44:36;0.50;72.40
69382;DHT22;56560;50.692;12.844;2023-04-03T06:47:02;0.50;71.70
69382;DHT22;56560;50.692;12.844;2023-04-03T06:49:27;0.50;71.70
69382;DHT22;56560;50.692;12.844;2023-04-03T06:51:54;0.50;72.10
69382;DHT22;56560;50.692;12.844;2023-04-03T06:54:20;0.60;72.20
69382;DHT22;56560;50.692;12.844;2023-04-03T06:56:46;0.80;70.70
69382;DHT22;56560;50.692;12.844;2023-04-03T06:59:12;0.70;70.40
69382;DHT22;56560;50.692;12.844;2023-04-03T07:01:39;0.70;70.90
69382;DHT22;56560;50.692;12.844;2023-04-03T07:04:06;0.70;70.30
69382;DHT22;56560;50.692;12.844;2023-04-03T07:06:31;0.90;70.30
69382;DHT22;56560;50.692;12.844;2023-04-03T07:08:59;0.90;68.70
69382;DHT22;56560;50.692;12.844;2023-04-03T07:11:25;0.80;68.30
69382;DHT22;56560;50.692;12.844;2023-04-03T07:13:52;0.80;67.70
69382;DHT22;56560;50.692;12.844;2023-04-03T07:16:18;1.00;67.60
69382;DHT22;56560;50.692;12.844;2023-04-03T07:18:44;1.10;67.90
69382;DHT22;56560;50.692;12.844;2023-04-03T07:21:11;1.40;68.00
69382;DHT22;56560;50.692;12.844;2023-04-03T07:23:37;1.60;68.20
69382;DHT22;56560;50.692;12.844;2023-04-03T07:26:03;1.60;66.00
69382;DHT22;56560;50.692;12.844;2023-04-03T07:28:28;1.80;65.80
69382;DHT22;56560;50.692;12.844;2023-04-03T07:33:26;1.90;65.80
69382;DHT22;56560;50.692;12.844;2023-04-03T07:35:51;2.00;64.00
69382;DHT22;56560;50.692;12.844;2023-04-03T07:38:17;1.90;64.60
69382;DHT22;56560;50.692;12.844;2023-04-03T07:40:47;2.00;63.90
69382;DHT22;56560;50.692;12.844;2023-04-03T07:43:14;2.10;64.30
69382;DHT22;56560;50.692;12.844;2023-04-03T07:45:40;2.20;63.20
69382;DHT22;56560;50.692;12.844;2023-04-03T07:48:06;2.20;63.80
69382;DHT22;56560;50.692;12.844;2023-04-03T07:50:32;2.30;66.30
69382;DHT22;56560;50.692;12.844;2023-04-03T07:52:58;2.30;62.70
69382;DHT22;56560;50.692;12.844;2023-04-03T07:55:25;2.30;62.60
69382;DHT22;56560;50.692;12.844;2023-04-03T07:57:50;2.40;62.80
69382;DHT22;56560;50.692;12.844;2023-04-03T08:00:17;2.40;62.90
69382;DHT22;56560;50.692;12.844;2023-04-03T08:02:44;2.50;62.80
69382;DHT22;56560;50.692;12.844;2023-04-03T08:05:10;2.60;61.80
69382;DHT22;56560;50.692;12.844;2023-04-03T08:07:37;2.70;61.90
69382;DHT22;56560;50.692;12.844;2023-04-03T08:10:03;2.70;62.40
69382;DHT22;56560;50.692;12.844;2023-04-03T08:12:29;3.00;61.20
69382;DHT22;56560;50.692;12.844;2023-04-03T08:14:57;3.30;59.80
69382;DHT22;56560;50.692;12.844;2023-04-03T08:17:22;3.40;58.20
69382;DHT22;56560;50.692;12.844;2023-04-03T08:19:48;3.40;57.40
69382;DHT22;56560;50.692;12.844;2023-04-03T08:22:14;3.50;58.00
69382;DHT22;56560;50.692;12.844;2023-04-03T08:24:40;3.40;58.90
69382;DHT22;56560;50.692;12.844;2023-04-03T08:27:05;3.00;59.20
69382;DHT22;56560;50.692;12.844;2023-04-03T08:29:31;2.70;59.20
69382;DHT22;56560;50.692;12.844;2023-04-03T08:31:56;2.60;60.00
69382;DHT22;56560;50.692;12.844;2023-04-03T08:34:22;2.50;57.70
69382;DHT22;56560;50.692;12.844;2023-04-03T08:36:48;2.30;59.70
69382;DHT22;56560;50.692;12.844;2023-04-03T08:39:13;2.00;60.90
69382;DHT22;56560;50.692;12.844;2023-04-03T08:41:42;2.00;60.30
69382;DHT22;56560;50.692;12.844;2023-04-03T08:47:10;1.70;61.80
69382;DHT22;56560;50.692;12.844;2023-04-03T08:49:45;1.90;60.40
69382;DHT22;56560;50.692;12.844;2023-04-03T08:52:38;1.80;60.40
69382;DHT22;56560;50.692;12.844;2023-04-03T08:55:15;1.70;60.10
69382;DHT22;56560;50.692;12.844;2023-04-03T08:57:45;1.60;60.70
69382;DHT22;56560;50.692;12.844;2023-04-03T09:00:22;1.80;60.30
69382;DHT22;56560;50.692;12.844;2023-04-03T09:02:56;2.10;58.70
69382;DHT22;56560;50.692;12.844;2023-04-03T09:08:06;2.70;56.60
69382;DHT22;56560;50.692;12.844;2023-04-03T09:10:37;2.70;56.90
69382;DHT22;56560;50.692;12.844;2023-04-03T09:13:26;3.00;57.00
69382;DHT22;56560;50.692;12.844;2023-04-03T09:15:54;3.80;57.00
69382;DHT22;56560;50.692;12.844;2023-04-03T09:18:26;4.10;54.00
69382;DHT22;56560;50.692;12.844;2023-04-03T09:21:13;4.10;52.00
69382;DHT22;56560;50.692;12.844;2023-04-03T09:23:53;3.90;51.40
69382;DHT22;56560;50.692;12.844;2023-04-03T09:26:24;4.10;52.50
69382;DHT22;56560;50.692;12.844;2023-04-03T09:28:58;4.40;51.90
69382;DHT22;56560;50.692;12.844;2023-04-03T09:31:40;4.40;50.80
69382;DHT22;56560;50.692;12.844;2023-04-03T09:36:49;4.30;53.00
69382;DHT22;56560;50.692;12.844;2023-04-03T09:39:24;4.20;51.70
69382;DHT22;56560;50.692;12.844;2023-04-03T09:42:02;3.90;52.20
69382;DHT22;56560;50.692;12.844;2023-04-03T09:44:34;4.00;51.40
69382;DHT22;56560;50.692;12.844;2023-04-03T09:47:24;4.40;52.10
69382;DHT22;56560;50.692;12.844;2023-04-03T09:49:50;4.90;49.80
69382;DHT22;56560;50.692;12.844;2023-04-03T09:52:25;4.70;51.70
69382;DHT22;56560;50.692;12.844;2023-04-03T09:54:51;4.30;52.80
69382;DHT22;56560;50.692;12.844;2023-04-03T09:57:17;4.20;53.20
69382;DHT22;56560;50.692;12.844;2023-04-03T10:04:50;5.00;50.90
69382;DHT22;56560;50.692;12.844;2023-04-03T10:07:28;4.70;49.30
69382;DHT22;56560;50.692;12.844;2023-04-03T10:10:14;4.30;51.00
69382;DHT22;56560;50.692;12.844;2023-04-03T10:12:41;4.60;50.40
69382;DHT22;56560;50.692;12.844;2023-04-03T10:15:13;4.60;50.30
69382;DHT22;56560;50.692;12.844;2023-04-03T10:29:06;4.80;50.00
69382;DHT22;56560;50.692;12.844;2023-04-03T10:31:46;4.90;50.50
69382;DHT22;56560;50.692;12.844;2023-04-03T10:34:28;4.90;50.50
69382;DHT22;56560;50.692;12.844;2023-04-03T10:37:11;5.10;47.30
69382;DHT22;56560;50.692;12.844;2023-04-03T10:51:01;5.80;44.90
69382;DHT22;56560;50.692;12.844;2023-04-03T10:53:49;6.20;42.30
69382;DHT22;56560;50.692;12.844;2023-04-03T10:56:40;6.80;44.30
69382;DHT22;56560;50.692;12.844;2023-04-03T11:04:36;8.00;42.40
69382;DHT22;56560;50.692;12.844;2023-04-03T11:07:20;8.20;40.60
69382;DHT22;56560;50.692;12.844;2023-04-03T11:09:52;7.80;39.20
69382;DHT22;56560;50.692;12.844;2023-04-03T11:12:26;8.00;40.40
69382;DHT22;56560;50.692;12.844;2023-04-03T11:14:55;8.10;40.30
69382;DHT22;56560;50.692;12.844;2023-04-03T11:17:33;7.80;39.90
69382;DHT22;56560;50.692;12.844;2023-04-03T11:20:17;7.70;41.60
69382;DHT22;56560;50.692;12.844;2023-04-03T11:25:41;7.40;41.70
69382;DHT22;56560;50.692;12.844;2023-04-03T11:28:15;7.30;41.50
69382;DHT22;56560;50.692;12.844;2023-04-03T11:35:59;6.50;46.60
69382;DHT22;56560;50.692;12.844;2023-04-03T11:38:33;6.60;46.10
69382;DHT22;56560;50.692;12.844;2023-04-03T11:41:03;6.60;45.70
69382;DHT22;56560;50.692;12.844;2023-04-03T11:43:31;6.20;47.20
69382;DHT22;56560;50.692;12.844;2023-04-03T11:46:02;5.80;48.10
69382;DHT22;56560;50.692;12.844;2023-04-03T11:53:43;7.10;43.40
69382;DHT22;56560;50.692;12.844;2023-04-03T12:01:55;8.50;41.50
69382;DHT22;56560;50.692;12.844;2023-04-03T12:04:24;9.50;42.00
69382;DHT22;56560;50.692;12.844;2023-04-03T12:06:58;9.70;41.20
69382;DHT22;56560;50.692;12.844;2023-04-03T12:09:34;9.30;41.70
69382;DHT22;56560;50.692;12.844;2023-04-03T12:12:39;8.60;43.00
69382;DHT22;56560;50.692;12.844;2023-04-03T12:15:26;8.60;42.10
69382;DHT22;56560;50.692;12.844;2023-04-03T12:18:31;8.40;41.80
69382;DHT22;56560;50.692;12.844;2023-04-03T12:20:58;7.80;43.80
69382;DHT22;56560;50.692;12.844;2023-04-03T12:23:32;7.80;43.10
69382;DHT22;56560;50.692;12.844;2023-04-03T12:28:39;8.30;41.20
69382;DHT22;56560;50.692;12.844;2023-04-03T12:31:08;7.90;43.00
69382;DHT22;56560;50.692;12.844;2023-04-03T12:33:52;8.20;41.10
69382;DHT22;56560;50.692;12.844;2023-04-03T12:40:14;7.00;43.30
69382;DHT22;56560;50.692;12.844;2023-04-03T12:42:32;6.60;45.00
69382;DHT22;56560;50.692;12.844;2023-04-03T12:45:25;6.20;46.10
69382;DHT22;56560;50.692;12.844;2023-04-03T12:47:53;6.20;46.70
69382;DHT22;56560;50.692;12.844;2023-04-03T12:50:23;6.40;45.90
69382;DHT22;56560;50.692;12.844;2023-04-03T12:53:25;6.40;44.40
69382;DHT22;56560;50.692;12.844;2023-04-03T12:55:56;6.30;45.20
69382;DHT22;56560;50.692;12.844;2023-04-03T12:58:27;6.60;45.10
69382;DHT22;56560;50.692;12.844;2023-04-03T13:01:23;7.10;43.80
69382;DHT22;56560;50.692;12.844;2023-04-03T13:03:56;7.40;42.90
69382;DHT22;56560;50.692;12.844;2023-04-03T13:06:26;7.00;44.20
69382;DHT22;56560;50.692;12.844;2023-04-03T13:08:56;6.80;41.80
69382;DHT22;56560;50.692;12.844;2023-04-03T13:11:32;6.50;41.30
69382;DHT22;56560;50.692;12.844;2023-04-03T13:14:05;7.60;40.70
69382;DHT22;56560;50.692;12.844;2023-04-03T13:16:39;9.40;37.30
69382;DHT22;56560;50.692;12.844;2023-04-03T13:19:18;9.40;37.10
69382;DHT22;56560;50.692;12.844;2023-04-03T13:21:44;8.90;37.60
69382;DHT22;56560;50.692;12.844;2023-04-03T13:24:11;8.20;38.60
69382;DHT22;56560;50.692;12.844;2023-04-03T13:26:37;7.80;40.10
69382;DHT22;56560;50.692;12.844;2023-04-03T13:29:05;7.20;40.80
69382;DHT22;56560;50.692;12.844;2023-04-03T13:31:34;6.80;41.30
69382;DHT22;56560;50.692;12.844;2023-04-03T13:34:07;6.40;42.10
69382;DHT22;56560;50.692;12.844;2023-04-03T13:36:58;6.30;42.20
69382;DHT22;56560;50.692;12.844;2023-04-03T13:41:52;6.20;43.20
69382;DHT22;56560;50.692;12.844;2023-04-03T13:51:52;6.20;44.90
69382;DHT22;56560;50.692;12.844;2023-04-03T13:54:24;6.00;44.60
69382;DHT22;56560;50.692;12.844;2023-04-03T13:56:57;5.90;44.20
69382;DHT22;56560;50.692;12.844;2023-04-03T13:59:31;5.80;44.60
69382;DHT22;56560;50.692;12.844;2023-04-03T14:07:11;6.70;43.50
69382;DHT22;56560;50.692;12.844;2023-04-03T14:09:36;6.80;41.70
69382;DHT22;56560;50.692;12.844;2023-04-03T14:12:07;6.80;41.10
69382;DHT22;56560;50.692;12.844;2023-04-03T14:14:35;7.00;41.70
69382;DHT22;56560;50.692;12.844;2023-04-03T14:17:18;6.80;41.60
69382;DHT22;56560;50.692;12.844;2023-04-03T14:19:44;6.30;42.00
69382;DHT22;56560;50.692;12.844;2023-04-03T14:24:48;6.20;43.90
69382;DHT22;56560;50.692;12.844;2023-04-03T14:27:27;6.20;43.40
69382;DHT22;56560;50.692;12.844;2023-04-03T14:29:55;5.80;43.80
69382;DHT22;56560;50.692;12.844;2023-04-03T14:32:23;5.60;43.90
69382;DHT22;56560;50.692;12.844;2023-04-03T14:34:50;5.50;45.00
69382;DHT22;56560;50.692;12.844;2023-04-03T14:37:19;5.50;45.20
69382;DHT22;56560;50.692;12.844;2023-04-03T14:39:46;5.80;44.80
69382;DHT22;56560;50.692;12.844;2023-04-03T14:42:16;6.00;43.30
69382;DHT22;56560;50.692;12.844;2023-04-03T14:44:42;6.10;43.80
69382;DHT22;56560;50.692;12.844;2023-04-03T14:47:16;6.30;43.50
69382;DHT22;56560;50.692;12.844;2023-04-03T14:49:42;6.30;42.30
69382;DHT22;56560;50.692;12.844;2023-04-03T14:52:35;6.20;43.10
69382;DHT22;56560;50.692;12.844;2023-04-03T14:55:05;5.70;44.20
69382;DHT22;56560;50.692;12.844;2023-04-03T14:57:31;5.60;45.50
69382;DHT22;56560;50.692;12.844;2023-04-03T14:59:58;5.60;46.10
69382;DHT22;56560;50.692;12.844;2023-04-03T15:02:33;5.50;45.50
69382;DHT22;56560;50.692;12.844;2023-04-03T15:05:01;5.20;46.50
69382;DHT22;56560;50.692;12.844;2023-04-03T15:07:31;5.20;46.10
69382;DHT22;56560;50.692;12.844;2023-04-03T15:09:59;5.30;46.30
69382;DHT22;56560;50.692;12.844;2023-04-03T15:12:26;5.00;46.20
69382;DHT22;56560;50.692;12.844;2023-04-03T15:14:52;5.00;47.90
69382;DHT22;56560;50.692;12.844;2023-04-03T15:17:20;4.70;46.90
69382;DHT22;56560;50.692;12.844;2023-04-03T15:19:47;4.50;48.30
69382;DHT22;56560;50.692;12.844;2023-04-03T15:22:15;4.60;48.40
69382;DHT22;56560;50.692;12.844;2023-04-03T15:24:41;4.60;47.80
69382;DHT22;56560;50.692;12.844;2023-04-03T15:27:09;4.60;48.80
69382;DHT22;56560;50.692;12.844;2023-04-03T15:29:37;4.60;49.40
69382;DHT22;56560;50.692;12.844;2023-04-03T15:32:03;4.70;49.20
69382;DHT22;56560;50.692;12.844;2023-04-03T15:34:29;4.80;49.50
69382;DHT22;56560;50.692;12.844;2023-04-03T15:36:55;4.90;49.30
69382;DHT22;56560;50.692;12.844;2023-04-03T15:39:21;4.90;49.30
69382;DHT22;56560;50.692;12.844;2023-04-03T15:41:48;4.80;49.70
69382;DHT22;56560;50.692;12.844;2023-04-03T15:44:14;4.70;49.40
69382;DHT22;56560;50.692;12.844;2023-04-03T15:46:43;4.50;49.90
69382;DHT22;56560;50.692;12.844;2023-04-03T15:49:09;4.50;50.70
69382;DHT22;56560;50.692;12.844;2023-04-03T15:51:35;4.40;51.40
69382;DHT22;56560;50.692;12.844;2023-04-03T15:54:01;4.40;51.10
69382;DHT22;56560;50.692;12.844;2023-04-03T15:56:26;4.30;49.20
69382;DHT22;56560;50.692;12.844;2023-04-03T15:58:52;4.10;50.30
69382;DHT22;56560;50.692;12.844;2023-04-03T16:01:17;3.90;50.00
69382;DHT22;56560;50.692;12.844;2023-04-03T16:03:43;3.80;51.00
69382;DHT22;56560;50.692;12.844;2023-04-03T16:06:17;3.80;51.80
69382;DHT22;56560;50.692;12.844;2023-04-03T16:08:44;3.90;51.30
69382;DHT22;56560;50.692;12.844;2023-04-03T16:11:10;3.80;52.50
69382;DHT22;56560;50.692;12.844;2023-04-03T16:13:36;3.80;52.40
69382;DHT22;56560;50.692;12.844;2023-04-03T16:16:05;3.80;52.10
69382;DHT22;56560;50.692;12.844;2023-04-03T16:18:32;3.70;52.60
69382;DHT22;56560;50.692;12.844;2023-04-03T16:20:59;3.70;51.40
69382;DHT22;56560;50.692;12.844;2023-04-03T16:23:27;3.70;51.90
69382;DHT22;56560;50.692;12.844;2023-04-03T16:25:53;3.70;51.40
69382;DHT22;56560;50.692;12.844;2023-04-03T16:28:18;3.60;51.50
69382;DHT22;56560;50.692;12.844;2023-04-03T16:30:45;3.40;52.90
69382;DHT22;56560;50.692;12.844;2023-04-03T16:33:13;3.30;51.60
69382;DHT22;56560;50.692;12.844;2023-04-03T16:35:39;3.20;50.90
69382;DHT22;56560;50.692;12.844;2023-04-03T16:38:05;3.10;52.40
69382;DHT22;56560;50.692;12.844;2023-04-03T16:40:31;3.20;52.20
69382;DHT22;56560;50.692;12.844;2023-04-03T16:42:59;3.30;52.00
69382;DHT22;56560;50.692;12.844;2023-04-03T16:45:24;3.40;51.90
69382;DHT22;56560;50.692;12.844;2023-04-03T16:47:50;3.40;51.30
69382;DHT22;56560;50.692;12.844;2023-04-03T16:50:16;3.20;50.90
69382;DHT22;56560;50.692;12.844;2023-04-03T16:52:41;3.10;51.60
69382;DHT22;56560;50.692;12.844;2023-04-03T16:55:08;2.90;50.90
69382;DHT22;56560;50.692;12.844;2023-04-03T16:57:33;2.90;50.90
69382;DHT22;56560;50.692;12.844;2023-04-03T16:59:59;2.90;50.50
69382;DHT22;56560;50.692;12.844;2023-04-03T17:02:25;2.80;52.20
69382;DHT22;56560;50.692;12.844;2023-04-03T17:04:52;2.80;52.10
69382;DHT22;56560;50.692;12.844;2023-04-03T17:07:19;2.70;51.90
69382;DHT22;56560;50.692;12.844;2023-04-03T17:09:45;2.60;50.20
69382;DHT22;56560;50.692;12.844;2023-04-03T17:12:11;2.50;51.20